sensor_id;sensor_type;location;lat;lon;timestamp;P1;durP1;ratioP1;P2;durP2;ratioP2
16506;SDS011;8366;51.020;7.642;2022-08-05T00:00:49;7.82;;;4.80;;
16506;SDS011;8366;51.020;7.642;2022-08-05T00:03:15;9.60;;;4.78;;
16506;SDS011;8366;51.020;7.642;2022-08-05T00:05:41;7.72;;;5.15;;
16506;SDS011;8366;51.020;7.642;2022-08-05T00:08:08;8.25;;;4.78;;
16506;SDS011;8366;51.020;7.642;2022-08-05T00:10:34;7.80;;;5.10;;
16506;SDS011;8366;51.020;7.642;2022-08-05T00:13:01;9.82;;;5.10;;
16506;SDS011;8366;51.020;7.642;2022-08-05T00:15:29;9.60;;;5.35;;
16506;SDS011;8366;51.020;7.642;2022-08-05T00:17:55;8.85;;;5.78;;
16506;SDS011;8366;51.020;7.642;2022-08-05T00:20:22;10.32;;;5.43;;
16506;SDS011;8366;51.020;7.642;2022-08-05T00:22:48;10.93;;;5.43;;
16506;SDS011;8366;51.020;7.642;2022-08-05T00:25:15;11.43;;;5.65;;
16506;SDS011;8366;51.020;7.642;2022-08-05T00:27:41;8.45;;;5.47;;
16506;SDS011;8366;51.020;7.642;2022-08-05T00:30:08;7.88;;;5.55;;
16506;SDS011;8366;51.020;7.642;2022-08-05T00:32:37;9.23;;;5.60;;
16506;SDS011;8366;51.020;7.642;2022-08-05T00:35:04;8.13;;;5.38;;
16506;SDS011;8366;51.020;7.642;2022-08-05T00:37:31;9.82;;;5.78;;
16506;SDS011;8366;51.020;7.642;2022-08-05T00:39:58;9.13;;;5.97;;
16506;SDS011;8366;51.020;7.642;2022-08-05T00:42:28;10.55;;;6.00;;
16506;SDS011;8366;51.020;7.642;2022-08-05T00:44:55;9.88;;;6.05;;
16506;SDS011;8366;51.020;7.642;2022-08-05T00:47:21;7.88;;;5.78;;
16506;SDS011;8366;51.020;7.642;2022-08-05T00:49:49;8.48;;;6.05;;
16506;SDS011;8366;51.020;7.642;2022-08-05T00:52:15;11.38;;;6.57;;
16506;SDS011;8366;51.020;7.642;2022-08-05T00:54:42;10.57;;;6.45;;
16506;SDS011;8366;51.020;7.642;2022-08-05T00:57:08;10.88;;;6.25;;
16506;SDS011;8366;51.020;7.642;2022-08-05T00:59:35;9.55;;;6.28;;
16506;SDS011;8366;51.020;7.642;2022-08-05T01:02:01;9.70;;;6.40;;
16506;SDS011;8366;51.020;7.642;2022-08-05T01:04:28;9.20;;;6.20;;
16506;SDS011;8366;51.020;7.642;2022-08-05T01:06:56;8.88;;;6.22;;
16506;SDS011;8366;51.020;7.642;2022-08-05T01:09:23;9.02;;;6.63;;
16506;SDS011;8366;51.020;7.642;2022-08-05T01:11:50;9.15;;;6.10;;
16506;SDS011;8366;51.020;7.642;2022-08-05T01:14:19;9.80;;;6.60;;
16506;SDS011;8366;51.020;7.642;2022-08-05T01:16:51;10.57;;;6.15;;
16506;SDS011;8366;51.020;7.642;2022-08-05T01:19:24;11.00;;;6.32;;
16506;SDS011;8366;51.020;7.642;2022-08-05T01:24:58;9.70;;;6.47;;
16506;SDS011;8366;51.020;7.642;2022-08-05T01:27:39;11.98;;;6.70;;
16506;SDS011;8366;51.020;7.642;2022-08-05T01:30:11;11.00;;;6.30;;
16506;SDS011;8366;51.020;7.642;2022-08-05T01:32:38;9.63;;;6.43;;
16506;SDS011;8366;51.020;7.642;2022-08-05T01:35:07;8.43;;;6.38;;
16506;SDS011;8366;51.020;7.642;2022-08-05T01:37:36;10.98;;;6.70;;
16506;SDS011;8366;51.020;7.642;2022-08-05T01:40:06;10.80;;;6.57;;
16506;SDS011;8366;51.020;7.642;2022-08-05T01:42:33;9.07;;;6.93;;
16506;SDS011;8366;51.020;7.642;2022-08-05T01:45:03;10.07;;;6.82;;
16506;SDS011;8366;51.020;7.642;2022-08-05T01:47:32;10.85;;;6.93;;
16506;SDS011;8366;51.020;7.642;2022-08-05T01:50:00;10.70;;;6.65;;
16506;SDS011;8366;51.020;7.642;2022-08-05T01:52:28;9.60;;;6.65;;
16506;SDS011;8366;51.020;7.642;2022-08-05T01:54:57;9.13;;;6.90;;
16506;SDS011;8366;51.020;7.642;2022-08-05T01:57:25;11.40;;;6.82;;
16506;SDS011;8366;51.020;7.642;2022-08-05T01:59:53;9.30;;;6.40;;
16506;SDS011;8366;51.020;7.642;2022-08-05T02:02:24;11.50;;;7.00;;
16506;SDS011;8366;51.020;7.642;2022-08-05T02:04:52;9.70;;;7.10;;
16506;SDS011;8366;51.020;7.642;2022-08-05T02:07:20;10.98;;;6.40;;
16506;SDS011;8366;51.020;7.642;2022-08-05T02:09:46;8.73;;;6.72;;
16506;SDS011;8366;51.020;7.642;2022-08-05T02:12:14;12.32;;;7.15;;
16506;SDS011;8366;51.020;7.642;2022-08-05T02:14:45;11.75;;;7.00;;
16506;SDS011;8366;51.020;7.642;2022-08-05T02:17:15;8.70;;;6.60;;
16506;SDS011;8366;51.020;7.642;2022-08-05T02:19:47;9.40;;;6.85;;
16506;SDS011;8366;51.020;7.642;2022-08-05T02:22:16;11.55;;;6.80;;
16506;SDS011;8366;51.020;7.642;2022-08-05T02:24:46;10.63;;;7.13;;
16506;SDS011;8366;51.020;7.642;2022-08-05T02:27:15;10.90;;;7.32;;
16506;SDS011;8366;51.020;7.642;2022-08-05T02:29:44;10.73;;;6.72;;
16506;SDS011;8366;51.020;7.642;2022-08-05T02:32:11;12.50;;;6.57;;
16506;SDS011;8366;51.020;7.642;2022-08-05T02:34:38;11.10;;;6.90;;
16506;SDS011;8366;51.020;7.642;2022-08-05T02:37:07;12.40;;;6.22;;
16506;SDS011;8366;51.020;7.642;2022-08-05T02:39:35;8.43;;;6.18;;
16506;SDS011;8366;51.020;7.642;2022-08-05T02:42:03;7.82;;;5.75;;
16506;SDS011;8366;51.020;7.642;2022-08-05T02:44:31;10.95;;;5.78;;
16506;SDS011;8366;51.020;7.642;2022-08-05T02:47:00;9.30;;;5.40;;
16506;SDS011;8366;51.020;7.642;2022-08-05T02:49:29;8.82;;;5.57;;
16506;SDS011;8366;51.020;7.642;2022-08-05T02:51:57;7.05;;;5.25;;
16506;SDS011;8366;51.020;7.642;2022-08-05T02:54:25;9.25;;;4.65;;
16506;SDS011;8366;51.020;7.642;2022-08-05T02:56:52;7.88;;;5.45;;
16506;SDS011;8366;51.020;7.642;2022-08-05T02:59:18;11.82;;;5.80;;
16506;SDS011;8366;51.020;7.642;2022-08-05T03:01:46;9.10;;;6.00;;
16506;SDS011;8366;51.020;7.642;2022-08-05T03:04:14;7.50;;;6.10;;
16506;SDS011;8366;51.020;7.642;2022-08-05T03:06:42;8.70;;;5.88;;
16506;SDS011;8366;51.020;7.642;2022-08-05T03:09:10;10.32;;;5.50;;
16506;SDS011;8366;51.020;7.642;2022-08-05T03:11:39;7.10;;;5.30;;
16506;SDS011;8366;51.020;7.642;2022-08-05T03:14:06;8.80;;;5.80;;
16506;SDS011;8366;51.020;7.642;2022-08-05T03:16:33;8.70;;;6.60;;
16506;SDS011;8366;51.020;7.642;2022-08-05T03:18:59;9.07;;;6.53;;
16506;SDS011;8366;51.020;7.642;2022-08-05T03:21:26;10.45;;;6.32;;
16506;SDS011;8366;51.020;7.642;2022-08-05T03:23:52;9.57;;;5.85;;
16506;SDS011;8366;51.020;7.642;2022-08-05T03:26:19;10.15;;;6.80;;
16506;SDS011;8366;51.020;7.642;2022-08-05T03:28:47;7.78;;;5.93;;
16506;SDS011;8366;51.020;7.642;2022-08-05T03:31:14;8.57;;;5.70;;
16506;SDS011;8366;51.020;7.642;2022-08-05T03:33:40;8.20;;;6.10;;
16506;SDS011;8366;51.020;7.642;2022-08-05T03:36:07;9.23;;;5.60;;
16506;SDS011;8366;51.020;7.642;2022-08-05T03:38:35;7.28;;;5.65;;
16506;SDS011;8366;51.020;7.642;2022-08-05T03:41:05;9.05;;;5.63;;
16506;SDS011;8366;51.020;7.642;2022-08-05T03:43:31;11.77;;;6.32;;
16506;SDS011;8366;51.020;7.642;2022-08-05T03:45:59;9.18;;;5.78;;
16506;SDS011;8366;51.020;7.642;2022-08-05T03:48:26;9.63;;;6.45;;
16506;SDS011;8366;51.020;7.642;2022-08-05T03:50:56;10.45;;;5.88;;
16506;SDS011;8366;51.020;7.642;2022-08-05T03:53:26;9.50;;;5.72;;
16506;SDS011;8366;51.020;7.642;2022-08-05T03:55:58;8.88;;;5.85;;
16506;SDS011;8366;51.020;7.642;2022-08-05T03:58:29;10.07;;;5.65;;
16506;SDS011;8366;51.020;7.642;2022-08-05T04:00:57;8.88;;;5.53;;
16506;SDS011;8366;51.020;7.642;2022-08-05T04:03:26;12.02;;;6.30;;
16506;SDS011;8366;51.020;7.642;2022-08-05T04:05:55;7.63;;;5.25;;
16506;SDS011;8366;51.020;7.642;2022-08-05T04:08:23;7.20;;;5.63;;
16506;SDS011;8366;51.020;7.642;2022-08-05T04:10:50;9.88;;;5.82;;
16506;SDS011;8366;51.020;7.642;2022-08-05T04:13:16;9.57;;;6.20;;
16506;SDS011;8366;51.020;7.642;2022-08-05T04:15:45;10.05;;;5.68;;
16506;SDS011;8366;51.020;7.642;2022-08-05T04:18:13;9.00;;;5.88;;
16506;SDS011;8366;51.020;7.642;2022-08-05T04:20:41;9.65;;;5.80;;
16506;SDS011;8366;51.020;7.642;2022-08-05T04:23:07;10.20;;;5.38;;
16506;SDS011;8366;51.020;7.642;2022-08-05T04:25:35;8.25;;;6.00;;
16506;SDS011;8366;51.020;7.642;2022-08-05T04:28:02;9.68;;;5.95;;
16506;SDS011;8366;51.020;7.642;2022-08-05T04:30:28;9.73;;;5.47;;
16506;SDS011;8366;51.020;7.642;2022-08-05T04:32:55;7.85;;;5.63;;
16506;SDS011;8366;51.020;7.642;2022-08-05T04:35:23;8.90;;;5.82;;
16506;SDS011;8366;51.020;7.642;2022-08-05T04:37:49;7.32;;;5.50;;
16506;SDS011;8366;51.020;7.642;2022-08-05T04:40:15;10.40;;;6.00;;
16506;SDS011;8366;51.020;7.642;2022-08-05T04:42:42;9.18;;;5.32;;
16506;SDS011;8366;51.020;7.642;2022-08-05T04:45:10;8.38;;;5.55;;
16506;SDS011;8366;51.020;7.642;2022-08-05T04:47:38;8.77;;;5.80;;
16506;SDS011;8366;51.020;7.642;2022-08-05T04:50:04;9.60;;;5.82;;
16506;SDS011;8366;51.020;7.642;2022-08-05T04:52:33;9.82;;;6.32;;
16506;SDS011;8366;51.020;7.642;2022-08-05T04:54:59;8.27;;;5.70;;
16506;SDS011;8366;51.020;7.642;2022-08-05T04:57:26;8.27;;;6.25;;
16506;SDS011;8366;51.020;7.642;2022-08-05T04:59:56;10.25;;;6.68;;
16506;SDS011;8366;51.020;7.642;2022-08-05T05:02:22;9.15;;;6.65;;
16506;SDS011;8366;51.020;7.642;2022-08-05T05:04:48;10.50;;;7.30;;
16506;SDS011;8366;51.020;7.642;2022-08-05T05:07:15;10.63;;;6.60;;
16506;SDS011;8366;51.020;7.642;2022-08-05T05:09:43;8.77;;;6.88;;
16506;SDS011;8366;51.020;7.642;2022-08-05T05:12:10;8.85;;;6.88;;
16506;SDS011;8366;51.020;7.642;2022-08-05T05:14:38;11.00;;;6.82;;
16506;SDS011;8366;51.020;7.642;2022-08-05T05:17:05;12.60;;;7.30;;
16506;SDS011;8366;51.020;7.642;2022-08-05T05:19:31;9.32;;;7.10;;
16506;SDS011;8366;51.020;7.642;2022-08-05T05:21:58;10.02;;;6.55;;
16506;SDS011;8366;51.020;7.642;2022-08-05T05:24:24;12.23;;;7.35;;
16506;SDS011;8366;51.020;7.642;2022-08-05T05:26:52;11.65;;;7.65;;
16506;SDS011;8366;51.020;7.642;2022-08-05T05:29:18;9.20;;;7.47;;
16506;SDS011;8366;51.020;7.642;2022-08-05T05:31:45;9.40;;;7.15;;
16506;SDS011;8366;51.020;7.642;2022-08-05T05:34:11;9.63;;;7.30;;
16506;SDS011;8366;51.020;7.642;2022-08-05T05:36:38;9.63;;;7.38;;
16506;SDS011;8366;51.020;7.642;2022-08-05T05:39:05;11.32;;;7.60;;
16506;SDS011;8366;51.020;7.642;2022-08-05T05:41:31;7.65;;;6.65;;
16506;SDS011;8366;51.020;7.642;2022-08-05T05:43:59;11.00;;;7.03;;
16506;SDS011;8366;51.020;7.642;2022-08-05T05:46:25;9.90;;;7.18;;
16506;SDS011;8366;51.020;7.642;2022-08-05T05:48:52;9.32;;;7.40;;
16506;SDS011;8366;51.020;7.642;2022-08-05T05:51:19;12.20;;;7.82;;
16506;SDS011;8366;51.020;7.642;2022-08-05T05:53:46;11.82;;;7.07;;
16506;SDS011;8366;51.020;7.642;2022-08-05T05:56:12;9.50;;;7.38;;
16506;SDS011;8366;51.020;7.642;2022-08-05T05:58:39;12.95;;;7.45;;
16506;SDS011;8366;51.020;7.642;2022-08-05T06:01:07;9.57;;;7.00;;
16506;SDS011;8366;51.020;7.642;2022-08-05T06:03:33;8.80;;;6.70;;
16506;SDS011;8366;51.020;7.642;2022-08-05T06:06:01;12.10;;;7.10;;
16506;SDS011;8366;51.020;7.642;2022-08-05T06:08:30;9.63;;;6.57;;
16506;SDS011;8366;51.020;7.642;2022-08-05T06:10:57;10.10;;;6.95;;
16506;SDS011;8366;51.020;7.642;2022-08-05T06:13:23;10.75;;;6.93;;
16506;SDS011;8366;51.020;7.642;2022-08-05T06:15:50;11.00;;;7.32;;
16506;SDS011;8366;51.020;7.642;2022-08-05T06:18:18;11.98;;;7.07;;
16506;SDS011;8366;51.020;7.642;2022-08-05T06:20:44;9.35;;;6.90;;
16506;SDS011;8366;51.020;7.642;2022-08-05T06:23:11;11.02;;;7.50;;
16506;SDS011;8366;51.020;7.642;2022-08-05T06:25:37;9.10;;;6.60;;
16506;SDS011;8366;51.020;7.642;2022-08-05T06:28:04;13.55;;;7.22;;
16506;SDS011;8366;51.020;7.642;2022-08-05T06:30:30;9.80;;;7.35;;
16506;SDS011;8366;51.020;7.642;2022-08-05T06:32:57;12.40;;;7.90;;
16506;SDS011;8366;51.020;7.642;2022-08-05T06:35:25;9.98;;;6.70;;
16506;SDS011;8366;51.020;7.642;2022-08-05T06:37:51;9.70;;;6.90;;
16506;SDS011;8366;51.020;7.642;2022-08-05T06:40:18;10.00;;;6.97;;
16506;SDS011;8366;51.020;7.642;2022-08-05T06:42:44;10.18;;;7.95;;
16506;SDS011;8366;51.020;7.642;2022-08-05T06:45:12;10.60;;;7.85;;
16506;SDS011;8366;51.020;7.642;2022-08-05T06:47:38;12.00;;;8.55;;
16506;SDS011;8366;51.020;7.642;2022-08-05T06:50:05;11.02;;;8.30;;
16506;SDS011;8366;51.020;7.642;2022-08-05T06:52:33;10.55;;;8.48;;
16506;SDS011;8366;51.020;7.642;2022-08-05T06:54:59;10.38;;;8.77;;
16506;SDS011;8366;51.020;7.642;2022-08-05T06:57:26;12.07;;;9.27;;
16506;SDS011;8366;51.020;7.642;2022-08-05T06:59:52;12.35;;;9.77;;
16506;SDS011;8366;51.020;7.642;2022-08-05T07:02:19;11.40;;;8.82;;
16506;SDS011;8366;51.020;7.642;2022-08-05T07:04:45;14.05;;;11.07;;
16506;SDS011;8366;51.020;7.642;2022-08-05T07:07:12;16.23;;;10.60;;
16506;SDS011;8366;51.020;7.642;2022-08-05T07:09:40;12.40;;;10.68;;
16506;SDS011;8366;51.020;7.642;2022-08-05T07:12:07;14.57;;;11.00;;
16506;SDS011;8366;51.020;7.642;2022-08-05T07:14:53;14.65;;;10.30;;
16506;SDS011;8366;51.020;7.642;2022-08-05T07:17:38;14.38;;;10.38;;
16506;SDS011;8366;51.020;7.642;2022-08-05T07:20:04;15.80;;;11.27;;
16506;SDS011;8366;51.020;7.642;2022-08-05T07:22:31;13.48;;;10.70;;
16506;SDS011;8366;51.020;7.642;2022-08-05T07:24:59;14.60;;;11.35;;
16506;SDS011;8366;51.020;7.642;2022-08-05T07:27:26;13.80;;;10.98;;
16506;SDS011;8366;51.020;7.642;2022-08-05T07:29:53;17.63;;;11.32;;
16506;SDS011;8366;51.020;7.642;2022-08-05T07:32:22;16.05;;;11.00;;
16506;SDS011;8366;51.020;7.642;2022-08-05T07:34:48;14.30;;;10.90;;
16506;SDS011;8366;51.020;7.642;2022-08-05T07:37:15;14.35;;;10.75;;
16506;SDS011;8366;51.020;7.642;2022-08-05T07:39:41;14.98;;;11.82;;
16506;SDS011;8366;51.020;7.642;2022-08-05T07:42:09;14.70;;;12.48;;
16506;SDS011;8366;51.020;7.642;2022-08-05T07:44:35;15.10;;;12.55;;
16506;SDS011;8366;51.020;7.642;2022-08-05T07:47:02;17.20;;;11.85;;
16506;SDS011;8366;51.020;7.642;2022-08-05T07:49:29;18.25;;;13.93;;
16506;SDS011;8366;51.020;7.642;2022-08-05T07:51:55;17.40;;;13.20;;
16506;SDS011;8366;51.020;7.642;2022-08-05T07:54:22;18.08;;;12.93;;
16506;SDS011;8366;51.020;7.642;2022-08-05T07:56:50;19.17;;;14.15;;
16506;SDS011;8366;51.020;7.642;2022-08-05T07:59:19;22.67;;;14.98;;
16506;SDS011;8366;51.020;7.642;2022-08-05T08:01:49;21.52;;;15.43;;
16506;SDS011;8366;51.020;7.642;2022-08-05T08:04:16;21.13;;;15.15;;
16506;SDS011;8366;51.020;7.642;2022-08-05T08:06:42;21.60;;;13.55;;
16506;SDS011;8366;51.020;7.642;2022-08-05T08:09:09;21.42;;;14.55;;
16506;SDS011;8366;51.020;7.642;2022-08-05T08:11:35;22.25;;;15.48;;
16506;SDS011;8366;51.020;7.642;2022-08-05T08:14:02;24.73;;;16.77;;
16506;SDS011;8366;51.020;7.642;2022-08-05T08:16:30;29.38;;;17.45;;
16506;SDS011;8366;51.020;7.642;2022-08-05T08:18:56;27.92;;;17.65;;
16506;SDS011;8366;51.020;7.642;2022-08-05T08:21:23;27.10;;;17.13;;
16506;SDS011;8366;51.020;7.642;2022-08-05T08:23:49;31.20;;;19.00;;
16506;SDS011;8366;51.020;7.642;2022-08-05T08:26:16;29.52;;;19.65;;
16506;SDS011;8366;51.020;7.642;2022-08-05T08:28:42;29.30;;;19.65;;
16506;SDS011;8366;51.020;7.642;2022-08-05T08:31:09;29.55;;;20.38;;
16506;SDS011;8366;51.020;7.642;2022-08-05T08:33:37;28.67;;;19.52;;
16506;SDS011;8366;51.020;7.642;2022-08-05T08:36:04;29.05;;;20.48;;
16506;SDS011;8366;51.020;7.642;2022-08-05T08:38:31;32.72;;;21.92;;
16506;SDS011;8366;51.020;7.642;2022-08-05T08:40:58;31.73;;;21.85;;
16506;SDS011;8366;51.020;7.642;2022-08-05T08:43:25;34.90;;;23.27;;
16506;SDS011;8366;51.020;7.642;2022-08-05T08:45:53;34.25;;;22.23;;
16506;SDS011;8366;51.020;7.642;2022-08-05T08:48:19;38.30;;;25.30;;
16506;SDS011;8366;51.020;7.642;2022-08-05T08:50:48;33.83;;;23.55;;
16506;SDS011;8366;51.020;7.642;2022-08-05T08:53:15;33.90;;;24.65;;
16506;SDS011;8366;51.020;7.642;2022-08-05T08:55:42;36.47;;;26.33;;
16506;SDS011;8366;51.020;7.642;2022-08-05T08:58:09;35.70;;;25.25;;
16506;SDS011;8366;51.020;7.642;2022-08-05T09:00:36;36.55;;;26.50;;
16506;SDS011;8366;51.020;7.642;2022-08-05T09:03:04;37.05;;;26.08;;
16506;SDS011;8366;51.020;7.642;2022-08-05T09:05:30;38.28;;;27.08;;
16506;SDS011;8366;51.020;7.642;2022-08-05T09:07:58;40.53;;;29.13;;
16506;SDS011;8366;51.020;7.642;2022-08-05T09:10:25;39.25;;;26.83;;
16506;SDS011;8366;51.020;7.642;2022-08-05T09:12:51;40.67;;;27.88;;
16506;SDS011;8366;51.020;7.642;2022-08-05T09:15:18;39.75;;;28.33;;
16506;SDS011;8366;51.020;7.642;2022-08-05T09:17:44;40.97;;;27.67;;
16506;SDS011;8366;51.020;7.642;2022-08-05T09:20:11;40.88;;;28.00;;
16506;SDS011;8366;51.020;7.642;2022-08-05T09:25:31;39.33;;;27.35;;
16506;SDS011;8366;51.020;7.642;2022-08-05T09:28:04;38.47;;;26.33;;
16506;SDS011;8366;51.020;7.642;2022-08-05T09:30:34;38.78;;;26.23;;
16506;SDS011;8366;51.020;7.642;2022-08-05T09:33:01;36.47;;;24.73;;
16506;SDS011;8366;51.020;7.642;2022-08-05T09:35:27;36.25;;;24.92;;
16506;SDS011;8366;51.020;7.642;2022-08-05T09:37:55;40.78;;;25.75;;
16506;SDS011;8366;51.020;7.642;2022-08-05T09:40:31;38.65;;;25.48;;
16506;SDS011;8366;51.020;7.642;2022-08-05T09:43:00;42.05;;;26.50;;
16506;SDS011;8366;51.020;7.642;2022-08-05T09:45:33;36.50;;;25.17;;
16506;SDS011;8366;51.020;7.642;2022-08-05T09:50:50;35.08;;;24.25;;
16506;SDS011;8366;51.020;7.642;2022-08-05T09:53:19;38.75;;;25.05;;
16506;SDS011;8366;51.020;7.642;2022-08-05T09:55:47;36.63;;;24.83;;
16506;SDS011;8366;51.020;7.642;2022-08-05T09:58:16;37.55;;;25.10;;
16506;SDS011;8366;51.020;7.642;2022-08-05T10:00:50;33.10;;;23.25;;
16506;SDS011;8366;51.020;7.642;2022-08-05T10:03:18;31.02;;;22.23;;
16506;SDS011;8366;51.020;7.642;2022-08-05T10:05:46;29.85;;;21.10;;
16506;SDS011;8366;51.020;7.642;2022-08-05T10:08:24;26.83;;;17.65;;
16506;SDS011;8366;51.020;7.642;2022-08-05T10:10:52;25.42;;;18.50;;
16506;SDS011;8366;51.020;7.642;2022-08-05T10:13:25;25.05;;;17.75;;
16506;SDS011;8366;51.020;7.642;2022-08-05T10:15:52;20.95;;;15.80;;
16506;SDS011;8366;51.020;7.642;2022-08-05T10:18:20;20.73;;;15.20;;
16506;SDS011;8366;51.020;7.642;2022-08-05T10:20:48;19.85;;;14.30;;
16506;SDS011;8366;51.020;7.642;2022-08-05T10:23:17;12.85;;;9.50;;
16506;SDS011;8366;51.020;7.642;2022-08-05T10:25:44;5.55;;;4.53;;
16506;SDS011;8366;51.020;7.642;2022-08-05T10:28:12;5.80;;;3.60;;
16506;SDS011;8366;51.020;7.642;2022-08-05T10:30:38;3.50;;;3.10;;
16506;SDS011;8366;51.020;7.642;2022-08-05T10:33:05;2.97;;;2.08;;
16506;SDS011;8366;51.020;7.642;2022-08-05T10:35:32;1.70;;;1.60;;
16506;SDS011;8366;51.020;7.642;2022-08-05T10:38:00;2.15;;;1.80;;
16506;SDS011;8366;51.020;7.642;2022-08-05T10:40:29;1.92;;;1.60;;
16506;SDS011;8366;51.020;7.642;2022-08-05T10:43:01;2.15;;;1.95;;
16506;SDS011;8366;51.020;7.642;2022-08-05T10:45:34;2.20;;;2.00;;
16506;SDS011;8366;51.020;7.642;2022-08-05T10:51:02;2.17;;;2.08;;
16506;SDS011;8366;51.020;7.642;2022-08-05T10:53:32;2.67;;;2.47;;
16506;SDS011;8366;51.020;7.642;2022-08-05T10:56:06;2.75;;;2.50;;
16506;SDS011;8366;51.020;7.642;2022-08-05T10:58:33;2.63;;;2.42;;
16506;SDS011;8366;51.020;7.642;2022-08-05T11:01:04;2.63;;;2.20;;
16506;SDS011;8366;51.020;7.642;2022-08-05T11:03:32;2.20;;;2.10;;
16506;SDS011;8366;51.020;7.642;2022-08-05T11:06:04;2.30;;;2.13;;
16506;SDS011;8366;51.020;7.642;2022-08-05T11:08:32;1.98;;;1.80;;
16506;SDS011;8366;51.020;7.642;2022-08-05T11:13:57;2.47;;;1.92;;
16506;SDS011;8366;51.020;7.642;2022-08-05T11:16:25;2.20;;;1.60;;
16506;SDS011;8366;51.020;7.642;2022-08-05T11:21:52;3.13;;;2.20;;
16506;SDS011;8366;51.020;7.642;2022-08-05T11:24:19;2.38;;;2.17;;
16506;SDS011;8366;51.020;7.642;2022-08-05T11:26:47;2.30;;;1.90;;
16506;SDS011;8366;51.020;7.642;2022-08-05T11:29:33;2.30;;;2.03;;
16506;SDS011;8366;51.020;7.642;2022-08-05T11:34:50;2.15;;;2.05;;
16506;SDS011;8366;51.020;7.642;2022-08-05T11:40:30;3.85;;;1.88;;
16506;SDS011;8366;51.020;7.642;2022-08-05T11:43:26;5.53;;;2.40;;
16506;SDS011;8366;51.020;7.642;2022-08-05T11:45:52;2.40;;;2.20;;
16506;SDS011;8366;51.020;7.642;2022-08-05T11:48:22;3.53;;;2.05;;
16506;SDS011;8366;51.020;7.642;2022-08-05T11:50:49;3.38;;;1.80;;
16506;SDS011;8366;51.020;7.642;2022-08-05T11:53:16;5.60;;;2.03;;
16506;SDS011;8366;51.020;7.642;2022-08-05T11:55:53;3.97;;;2.47;;
16506;SDS011;8366;51.020;7.642;2022-08-05T11:58:24;3.08;;;2.28;;
16506;SDS011;8366;51.020;7.642;2022-08-05T12:00:59;5.35;;;2.30;;
16506;SDS011;8366;51.020;7.642;2022-08-05T12:03:28;5.85;;;2.20;;
16506;SDS011;8366;51.020;7.642;2022-08-05T12:06:02;3.85;;;2.00;;
16506;SDS011;8366;51.020;7.642;2022-08-05T12:08:29;4.95;;;2.40;;
16506;SDS011;8366;51.020;7.642;2022-08-05T12:10:57;3.85;;;2.10;;
16506;SDS011;8366;51.020;7.642;2022-08-05T12:13:24;2.55;;;1.90;;
16506;SDS011;8366;51.020;7.642;2022-08-05T12:15:50;3.20;;;1.80;;
16506;SDS011;8366;51.020;7.642;2022-08-05T12:21:20;1.92;;;1.70;;
16506;SDS011;8366;51.020;7.642;2022-08-05T12:23:51;3.22;;;2.10;;
16506;SDS011;8366;51.020;7.642;2022-08-05T12:26:19;2.13;;;1.92;;
16506;SDS011;8366;51.020;7.642;2022-08-05T12:28:45;3.22;;;2.20;;
16506;SDS011;8366;51.020;7.642;2022-08-05T12:31:12;5.65;;;2.55;;
16506;SDS011;8366;51.020;7.642;2022-08-05T12:33:39;2.80;;;2.22;;
16506;SDS011;8366;51.020;7.642;2022-08-05T12:36:06;3.17;;;2.47;;
16506;SDS011;8366;51.020;7.642;2022-08-05T12:38:34;2.40;;;2.20;;
16506;SDS011;8366;51.020;7.642;2022-08-05T12:41:01;5.30;;;2.30;;
16506;SDS011;8366;51.020;7.642;2022-08-05T12:43:28;4.60;;;2.30;;
16506;SDS011;8366;51.020;7.642;2022-08-05T12:45:55;4.30;;;2.35;;
16506;SDS011;8366;51.020;7.642;2022-08-05T12:48:21;4.63;;;2.55;;
16506;SDS011;8366;51.020;7.642;2022-08-05T12:53:40;3.47;;;1.98;;
16506;SDS011;8366;51.020;7.642;2022-08-05T12:56:14;2.53;;;1.80;;
16506;SDS011;8366;51.020;7.642;2022-08-05T12:58:42;2.50;;;1.90;;
16506;SDS011;8366;51.020;7.642;2022-08-05T13:01:08;2.22;;;1.80;;
16506;SDS011;8366;51.020;7.642;2022-08-05T13:03:34;3.67;;;1.80;;
16506;SDS011;8366;51.020;7.642;2022-08-05T13:06:02;3.80;;;1.83;;
16506;SDS011;8366;51.020;7.642;2022-08-05T13:08:32;4.20;;;2.00;;
16506;SDS011;8366;51.020;7.642;2022-08-05T13:11:00;3.47;;;1.83;;
16506;SDS011;8366;51.020;7.642;2022-08-05T13:13:27;3.20;;;1.50;;
16506;SDS011;8366;51.020;7.642;2022-08-05T13:15:53;4.82;;;1.60;;
16506;SDS011;8366;51.020;7.642;2022-08-05T13:18:19;3.30;;;1.70;;
16506;SDS011;8366;51.020;7.642;2022-08-05T13:20:46;2.45;;;1.63;;
16506;SDS011;8366;51.020;7.642;2022-08-05T13:23:13;3.35;;;1.63;;
16506;SDS011;8366;51.020;7.642;2022-08-05T13:25:39;2.58;;;1.50;;
16506;SDS011;8366;51.020;7.642;2022-08-05T13:28:07;3.45;;;1.67;;
16506;SDS011;8366;51.020;7.642;2022-08-05T13:30:33;5.28;;;1.60;;
16506;SDS011;8366;51.020;7.642;2022-08-05T13:33:00;2.58;;;1.60;;
16506;SDS011;8366;51.020;7.642;2022-08-05T13:35:26;2.55;;;1.50;;
16506;SDS011;8366;51.020;7.642;2022-08-05T13:37:53;2.55;;;1.55;;
16506;SDS011;8366;51.020;7.642;2022-08-05T13:40:19;5.28;;;2.08;;
16506;SDS011;8366;51.020;7.642;2022-08-05T13:42:45;2.90;;;1.77;;
16506;SDS011;8366;51.020;7.642;2022-08-05T13:45:13;3.30;;;1.80;;
16506;SDS011;8366;51.020;7.642;2022-08-05T13:47:40;3.45;;;2.00;;
16506;SDS011;8366;51.020;7.642;2022-08-05T13:50:06;4.47;;;1.63;;
16506;SDS011;8366;51.020;7.642;2022-08-05T13:52:33;4.82;;;2.30;;
16506;SDS011;8366;51.020;7.642;2022-08-05T13:54:59;4.50;;;2.00;;
16506;SDS011;8366;51.020;7.642;2022-08-05T13:57:26;3.58;;;2.30;;
16506;SDS011;8366;51.020;7.642;2022-08-05T13:59:52;3.80;;;2.15;;
16506;SDS011;8366;51.020;7.642;2022-08-05T14:02:20;2.95;;;2.25;;
16506;SDS011;8366;51.020;7.642;2022-08-05T14:04:47;3.58;;;2.35;;
16506;SDS011;8366;51.020;7.642;2022-08-05T14:07:32;2.97;;;2.20;;
16506;SDS011;8366;51.020;7.642;2022-08-05T14:09:59;3.75;;;2.47;;
16506;SDS011;8366;51.020;7.642;2022-08-05T14:12:26;3.22;;;2.22;;
16506;SDS011;8366;51.020;7.642;2022-08-05T14:14:53;4.28;;;2.50;;
16506;SDS011;8366;51.020;7.642;2022-08-05T14:17:21;5.90;;;2.78;;
16506;SDS011;8366;51.020;7.642;2022-08-05T14:19:50;3.10;;;2.50;;
16506;SDS011;8366;51.020;7.642;2022-08-05T14:22:16;3.78;;;2.13;;
16506;SDS011;8366;51.020;7.642;2022-08-05T14:24:43;3.30;;;2.17;;
16506;SDS011;8366;51.020;7.642;2022-08-05T14:27:09;2.67;;;2.25;;
16506;SDS011;8366;51.020;7.642;2022-08-05T14:29:36;3.25;;;2.60;;
16506;SDS011;8366;51.020;7.642;2022-08-05T14:32:02;3.83;;;2.40;;
16506;SDS011;8366;51.020;7.642;2022-08-05T14:34:30;3.83;;;2.92;;
16506;SDS011;8366;51.020;7.642;2022-08-05T14:36:56;4.35;;;2.30;;
16506;SDS011;8366;51.020;7.642;2022-08-05T14:39:23;4.85;;;2.85;;
16506;SDS011;8366;51.020;7.642;2022-08-05T14:41:49;3.97;;;2.72;;
16506;SDS011;8366;51.020;7.642;2022-08-05T14:44:16;6.60;;;2.80;;
16506;SDS011;8366;51.020;7.642;2022-08-05T14:46:42;3.40;;;2.40;;
16506;SDS011;8366;51.020;7.642;2022-08-05T14:49:09;3.80;;;2.47;;
16506;SDS011;8366;51.020;7.642;2022-08-05T14:51:37;4.10;;;2.55;;
16506;SDS011;8366;51.020;7.642;2022-08-05T14:54:04;6.65;;;2.97;;
16506;SDS011;8366;51.020;7.642;2022-08-05T14:56:32;4.38;;;3.13;;
16506;SDS011;8366;51.020;7.642;2022-08-05T14:58:59;5.00;;;2.97;;
16506;SDS011;8366;51.020;7.642;2022-08-05T15:01:25;5.60;;;2.80;;
16506;SDS011;8366;51.020;7.642;2022-08-05T15:03:52;5.57;;;2.75;;
16506;SDS011;8366;51.020;7.642;2022-08-05T15:06:19;7.28;;;4.03;;
16506;SDS011;8366;51.020;7.642;2022-08-05T15:08:46;6.00;;;2.75;;
16506;SDS011;8366;51.020;7.642;2022-08-05T15:11:13;3.67;;;2.70;;
16506;SDS011;8366;51.020;7.642;2022-08-05T15:13:39;6.13;;;2.92;;
16506;SDS011;8366;51.020;7.642;2022-08-05T15:16:06;3.95;;;2.95;;
16506;SDS011;8366;51.020;7.642;2022-08-05T15:18:33;3.35;;;3.03;;
16506;SDS011;8366;51.020;7.642;2022-08-05T15:21:00;5.00;;;3.10;;
16506;SDS011;8366;51.020;7.642;2022-08-05T15:23:26;5.65;;;3.17;;
16506;SDS011;8366;51.020;7.642;2022-08-05T15:25:54;5.95;;;2.95;;